Stations météo

Publicité
Rodkallen, Suède (2188): Température de l'air & dewpoint: 18.01.2021 07:00:00 - 24.01.2021 07:00:00 (CET)Rodkallen, Suède (2188): Vitesse du vent & gusts: 18.01.2021 07:00:00 - 24.01.2021 07:00:00 (CET)Rodkallen, Suède (2188): Direction du vent: 18.01.2021 07:00:00 - 24.01.2021 07:00:00 (CET)Rodkallen, Suède (2188): visibility: 18.01.2021 07:00:00 - 24.01.2021 07:00:00 (CET)Rodkallen, Suède (2188): Quantités de précipitations: 18.01.2021 07:00:00 - 24.01.2021 07:00:00 (CET)
Date & Time tt [°C] td [°C] ff [km/h] ff [knt] fx [km/h] fx [knt] dd vv [km] rr [mm]
24.01.2021 07:00:00 -11,6 -14,1 18 10 32 18 NNW 13 -
24.01.2021 06:00:00 -11,6 -14,2 20 11 29 15 NNW 22 0,0
24.01.2021 05:00:00 -11,6 -14,2 18 10 26 14 NNW 50 0,0
24.01.2021 04:00:00 -11,5 -14,3 18 10 31 17 NNW 50 0,0
24.01.2021 03:00:00 -11,4 -14,0 19 11 30 16 NNW 50 0,0
24.01.2021 02:00:00 -11,0 -13,8 16 9 26 14 NNW 50 0,0
24.01.2021 01:00:00 -10,8 -13,7 15 8 30 16 NNW 50 0,0
24.01.2021 00:00:00 -10,6 -13,4 21 11 36 19 NNW 50 0,0
23.01.2021 23:00:00 -10,7 -13,3 24 13 37 20 NNW - 0,0
23.01.2021 22:00:00 -10,7 -13,4 23 12 40 22 NNW - 0,0
23.01.2021 21:00:00 -10,9 -13,4 29 16 45 25 NNW - 0,0
23.01.2021 20:00:00 -11,1 -13,1 35 19 51 28 NNW - 0,0
23.01.2021 19:00:00 -10,9 -12,6 38 21 55 30 NNW - 0,0
23.01.2021 18:00:00 -10,6 -12,3 33 18 53 28 N - 0,0
23.01.2021 17:00:00 -10,6 -12,3 41 22 56 31 N 2,5 0,2
23.01.2021 16:00:00 -10,7 -12,5 46 25 59 32 NNE 1,1 0,5
23.01.2021 15:00:00 -10,5 -12,1 48 26 58 32 NNE 0,8 0,5
23.01.2021 14:00:00 -10,2 -11,8 48 26 61 33 NNE 0,7 0,5
23.01.2021 13:00:00 -10,0 -11,5 48 26 60 32 NNE 0,5 0,8
23.01.2021 12:00:00 -9,4 -10,7 46 25 56 30 NE 1,0 0,3
23.01.2021 11:00:00 -7,6 -9,0 48 26 64 35 NE 1,3 0,2
23.01.2021 10:00:00 -7,4 -8,6 50 27 63 34 NE 0,8 0,1
23.01.2021 09:00:00 -7,1 -8,3 51 28 66 36 NE 1,1 0,0
23.01.2021 08:00:00 -6,7 -8,1 53 29 64 34 ENE 0,8 0,0
23.01.2021 07:00:00 -7,0 -8,4 50 27 61 33 ENE 0,7 0,2
23.01.2021 06:00:00 -7,1 -8,5 49 27 61 33 ENE 6 0,0
23.01.2021 05:00:00 -7,0 -8,6 46 25 64 35 ENE 1,7 0,0
23.01.2021 04:00:00 -7,2 -9,1 51 28 65 35 ENE 2,8 0,0
23.01.2021 03:00:00 -7,4 -9,3 55 30 68 37 ENE 1,8 0,0
23.01.2021 02:00:00 -7,2 -8,7 55 30 71 38 E 0,7 0,0
23.01.2021 01:00:00 -6,9 -8,3 57 31 77 42 E 0,3 0,0
23.01.2021 00:00:00 -6,8 -7,9 60 33 87 47 E 0,2 -
22.01.2021 23:00:00 -7,3 -8,8 69 37 85 46 ENE 0,5 0,0
22.01.2021 22:00:00 -6,9 -8,2 65 35 79 43 ENE 1,2 0,0
22.01.2021 21:00:00 -7,4 -8,6 64 35 83 45 ENE 1,4 0,0
22.01.2021 20:00:00 -6,8 -8,0 61 33 75 40 ENE 5 0,0
22.01.2021 19:00:00 -6,4 -7,6 55 30 71 39 ENE 13 0,0
22.01.2021 18:00:00 -6,4 -7,9 55 30 68 37 ENE 6 0,1
22.01.2021 17:00:00 -6,3 -7,8 51 27 63 34 E 5 0,2
22.01.2021 16:00:00 -6,3 -7,9 52 28 64 34 E 1,4 0,5
22.01.2021 15:00:00 -5,9 -7,3 50 27 62 33 E 0,7 0,5
22.01.2021 14:00:00 -5,9 -7,3 48 26 59 32 E 0,9 0,5
22.01.2021 13:00:00 -6,0 -7,4 47 26 59 32 E 0,6 0,2
22.01.2021 12:00:00 -5,4 -6,9 42 23 55 30 E 1,4 0,3
22.01.2021 11:00:00 -5,6 -7,3 43 23 55 30 E 1,8 0,1
22.01.2021 10:00:00 -5,6 -7,4 41 22 54 29 E 4,2 0,0
22.01.2021 09:00:00 -5,5 -7,5 40 22 51 28 E 4,2 0,0
22.01.2021 08:00:00 -5,6 -7,6 43 23 54 29 E 2,8 0,2
22.01.2021 07:00:00 -5,8 -7,6 43 23 56 31 E 1,4 0,0
22.01.2021 06:00:00 -5,9 -7,9 46 25 61 33 E 3,6 0,0
22.01.2021 05:00:00 -6,2 -8,0 49 26 61 33 E 1,4 0,0
22.01.2021 04:00:00 -6,4 -8,6 51 27 69 37 E 1,7 0,0
22.01.2021 03:00:00 -6,8 -8,9 55 30 76 41 E 1,2 0,2
22.01.2021 02:00:00 -6,8 -8,6 62 33 81 44 E 0,5 0,0
22.01.2021 01:00:00 -6,9 -8,6 65 35 85 46 E 0,5 0,1
22.01.2021 00:00:00 -6,5 -8,2 68 37 88 48 E 0,5 0,4
21.01.2021 23:00:00 -6,6 -8,0 69 37 89 48 E 0,3 0,7
21.01.2021 22:00:00 -6,7 -8,0 69 37 92 50 E 0,3 0,2
21.01.2021 21:00:00 -6,9 -8,3 71 38 93 50 E 0,4 0,4
21.01.2021 20:00:00 -6,7 -7,9 66 35 84 45 E 0,4 0,5
21.01.2021 19:00:00 -6,8 -8,2 66 36 84 45 E 0,5 0,3
21.01.2021 18:00:00 -6,6 -8,1 61 33 79 43 E 0,8 0,4
21.01.2021 17:00:00 -6,4 -7,9 60 32 77 42 E 0,8 0,3
21.01.2021 16:00:00 -6,5 -8,1 59 32 75 40 E 0,8 0,3
21.01.2021 15:00:00 -6,4 -7,9 56 31 70 38 E 0,6 0,1
21.01.2021 14:00:00 -6,2 -7,7 54 29 66 36 E 0,8 0,3
21.01.2021 13:00:00 -6,2 -7,9 51 28 63 34 E 1,2 0,0
21.01.2021 12:00:00 -6,0 -8,0 48 26 62 34 E 2,1 0,0
21.01.2021 11:00:00 -5,9 -8,0 46 25 59 32 E 6 0,0
21.01.2021 10:00:00 -5,9 -7,7 46 25 59 32 E 4,3 0,0
21.01.2021 09:00:00 -5,8 -7,8 45 24 55 30 E 4,7 0,0
21.01.2021 08:00:00 -5,8 -7,8 45 24 54 29 E 3,7 0,0
21.01.2021 07:00:00 -5,6 -7,6 42 23 51 28 E 5 0,0
21.01.2021 06:00:00 -5,1 -6,6 36 20 47 26 E 9 0,0
21.01.2021 05:00:00 -5,2 -6,6 39 21 47 25 ENE 5 0,0
21.01.2021 04:00:00 -5,3 -6,6 39 21 50 27 ENE 3,5 0,0
21.01.2021 03:00:00 -6,0 -7,4 41 22 48 26 NE 3,0 0,0
21.01.2021 02:00:00 -6,0 -7,4 37 20 45 24 NE 4,7 0,0
21.01.2021 01:00:00 -6,1 -7,5 36 19 42 23 NE 7 0,0
21.01.2021 00:00:00 -6,1 -7,6 36 19 43 23 NE 6 0,0
20.01.2021 23:00:00 -6,0 -7,7 35 19 44 24 ENE 6 0,0
20.01.2021 22:00:00 -6,1 -7,8 35 19 41 22 ENE 3,9 0,0
20.01.2021 21:00:00 -5,9 -7,6 32 18 41 22 ENE 9 0,0
20.01.2021 20:00:00 -5,6 -7,0 34 19 42 23 ENE 8 0,0
20.01.2021 19:00:00 -5,4 -6,5 35 19 43 23 ENE 6 0,0
20.01.2021 18:00:00 -5,2 -6,3 36 19 45 25 ENE 8 -
20.01.2021 17:00:00 -5,2 -6,2 38 21 45 24 ENE 4,7 0,0
20.01.2021 16:00:00 -5,0 -5,9 34 19 41 22 ENE 7 0,0
20.01.2021 15:00:00 -4,8 -5,6 35 19 40 22 ENE 3,3 0,1
20.01.2021 14:00:00 -5,2 -6,2 34 18 40 22 ENE 5 0,0
20.01.2021 13:00:00 -5,5 -6,5 32 17 37 20 ENE 5 0,0
20.01.2021 12:00:00 -5,7 -6,6 29 16 36 19 ENE 2,2 0,0
20.01.2021 11:00:00 -6,0 -6,9 29 16 37 20 NE 3,2 0,1
20.01.2021 10:00:00 -6,6 -7,6 28 15 37 20 NE 1,6 0,4
20.01.2021 09:00:00 -8,1 -9,2 29 16 36 20 NNE 1,7 0,2
20.01.2021 08:00:00 -8,6 -9,8 28 15 33 18 NNE 1,9 0,1
20.01.2021 07:00:00 -8,8 -10,0 22 12 27 15 NNE 3,4 0,2
20.01.2021 06:00:00 -7,7 -8,8 24 13 30 16 NNE 2,9 0,1
20.01.2021 05:00:00 -7,0 -7,9 22 12 26 14 NNE 3,5 0,0
20.01.2021 04:00:00 -7,2 -8,2 20 11 25 14 NNE 8 0,0
20.01.2021 03:00:00 -7,1 -8,0 16 9 24 13 NNE 5 0,1
20.01.2021 02:00:00 -7,0 -7,9 9 5 16 9 N 8 0,1
20.01.2021 01:00:00 -8,6 -9,8 13 7 16 9 N 9 0,1
20.01.2021 00:00:00 -9,1 -10,3 9 5 13 7 N 9 0,0
19.01.2021 23:00:00 -9,7 -11,0 11 6 14 7 N 21 0,0
19.01.2021 22:00:00 -10,4 -11,8 5 3 13 7 N 29 0,0
19.01.2021 21:00:00 -10,5 -11,8 8 4 11 6 N 11 0,0
19.01.2021 20:00:00 -9,5 -10,7 9 5 13 7 N 18 0,0
19.01.2021 19:00:00 -8,9 -10,1 11 6 14 7 N 27 0,0
19.01.2021 18:00:00 -9,8 -11,1 6 3 11 6 N 6 0,1
19.01.2021 17:00:00 -11,0 -12,5 5 3 11 6 N 8 0,0
19.01.2021 16:00:00 -11,7 -13,2 4 2 12 7 N 4,7 0,0
19.01.2021 15:00:00 -12,1 -13,7 3 2 11 6 N 14 0,0
19.01.2021 14:00:00 -12,2 -13,8 4 2 13 7 N 4,6 0,0
19.01.2021 13:00:00 -12,5 -14,1 3 2 15 8 NNW 3,4 0,0
19.01.2021 12:00:00 -12,4 -14,0 3 1 10 6 N 3,0 0,0
19.01.2021 11:00:00 -12,2 -13,8 0 0 13 7 N 3,5 0,0
19.01.2021 10:00:00 -13,2 -15,0 4 2 11 6 NNW 4,0 0,0
19.01.2021 09:00:00 -13,7 -15,4 0 0 7 4 N 8 0,0
19.01.2021 08:00:00 -14,6 -16,4 0 0 8 4 N 6 0,0
19.01.2021 07:00:00 -13,9 -15,6 0 0 4 2 N 6 0,0
19.01.2021 06:00:00 -13,7 -15,4 0 0 6 3 N 6 0,0
19.01.2021 05:00:00 -13,7 -15,4 0 0 3 2 N 7 0,0
19.01.2021 04:00:00 -13,5 -15,2 0 0 3 2 N 2,8 0,0
19.01.2021 03:00:00 -13,5 -15,2 0 0 3 2 N 4,2 0,0
19.01.2021 02:00:00 -13,2 -14,9 0 0 4 2 N 4,7 0,0
19.01.2021 01:00:00 -13,0 -14,7 0 0 4 2 N 3,8 0,0
19.01.2021 00:00:00 -13,1 -14,8 0 0 2 1 N 2,8 0,0
18.01.2021 23:00:00 -13,4 -15,1 0 0 3 2 N 1,7 0,0
18.01.2021 22:00:00 -14,0 -15,8 0 0 4 2 N 0,8 0,0
18.01.2021 21:00:00 -14,7 -16,5 0 0 8 4 N 0,9 0,0
18.01.2021 20:00:00 -16,7 -18,8 3 2 6 3 NNW 2,0 0,0
18.01.2021 19:00:00 -16,2 -18,1 4 2 8 4 WNW 2,1 0,0
18.01.2021 18:00:00 -16,9 -19,0 6 3 9 5 WNW 5 0,0
18.01.2021 17:00:00 -17,0 -19,1 5 3 9 5 NW 17 0,0
18.01.2021 16:00:00 -16,1 -18,0 6 4 10 5 WNW 13 0,0
18.01.2021 15:00:00 -14,1 -15,8 5 3 9 5 WNW 4,1 0,0
18.01.2021 14:00:00 -12,7 -14,3 8 4 12 6 W 8 0,0
18.01.2021 13:00:00 -12,7 -14,3 9 5 15 8 WSW 3,2 0,0
18.01.2021 12:00:00 -11,0 -12,3 11 6 16 9 WSW 0,3 0,0
18.01.2021 11:00:00 -10,6 -11,9 11 6 16 9 WNW 0,6 0,0
18.01.2021 10:00:00 -10,9 -12,1 8 4 14 8 NW 9 -
18.01.2021 09:00:00 -12,6 -14,2 8 5 16 9 NNW 41 0,0
18.01.2021 08:00:00 -11,7 -13,3 12 6 15 8 WNW 50 0,0
18.01.2021 07:00:00 -9,1 -10,6 6 3 11 6 NNW 50 0,0

tt = Température de l'air
td = dewpoint
ff = Vitesse du vent
fx = gusts
dd = Direction du vent
vv = visibility
rr = Quantités de précipitations

stations d'obs. à proximité